QFA452 YMML-YSSY
Flight info
| Callsign | QFA452 |
|---|---|
| Flight time | 1h 6m |
| Altitude | 37000 |
| Route | DOSEL Y59 RIVET |
| Aircraft | B738/M-SDE2E3FGHIRWXY/LB1 |
Departure
| Time | 2026-04-30 06:30 |
|---|---|
| Airport | Melbourne Airport (YMML) |
Arrival
| Time | 2026-04-30 07:36 |
|---|---|
| Airport | Sydney Kingsford Smith International Airport (YSSY) |
| Time | Latitude | Longitude | Altitude | Speed | Heading |
|---|---|---|---|---|---|
| 2026-04-30 06:00 | -37.66719 | 144.84905 | 396 ft | 0 kts | 82° |
| 2026-04-30 06:17 | -37.66719 | 144.84899 | 399 ft | 4 kts | 81° |
| 2026-04-30 06:17 | -37.66726 | 144.84866 | 397 ft | 4 kts | 64° |
| 2026-04-30 06:17 | -37.66741 | 144.84841 | 399 ft | 4 kts | 25° |
| 2026-04-30 06:17 | -37.66758 | 144.84837 | 394 ft | 1 kts | 338° |
| 2026-04-30 06:18 | -37.66762 | 144.84839 | 396 ft | 0 kts | 338° |
| 2026-04-30 06:21 | -37.66754 | 144.84835 | 393 ft | 3 kts | 338° |
| 2026-04-30 06:21 | -37.66736 | 144.84826 | 399 ft | 3 kts | 339° |
| 2026-04-30 06:21 | -37.66718 | 144.84818 | 396 ft | 3 kts | 341° |
| 2026-04-30 06:21 | -37.66700 | 144.84811 | 400 ft | 3 kts | 344° |
| 2026-04-30 06:22 | -37.66681 | 144.84806 | 400 ft | 3 kts | 348° |
| 2026-04-30 06:22 | -37.66645 | 144.84783 | 399 ft | 8 kts | 312° |
| 2026-04-30 06:22 | -37.66641 | 144.84714 | 401 ft | 9 kts | 262° |
| 2026-04-30 06:22 | -37.66652 | 144.84612 | 399 ft | 14 kts | 262° |
| 2026-04-30 06:23 | -37.66666 | 144.84491 | 398 ft | 14 kts | 262° |
| 2026-04-30 06:23 | -37.66681 | 144.84370 | 396 ft | 14 kts | 261° |
| 2026-04-30 06:23 | -37.66695 | 144.84252 | 393 ft | 14 kts | 261° |
| 2026-04-30 06:23 | -37.66750 | 144.84186 | 393 ft | 14 kts | 176° |
| 2026-04-30 06:24 | -37.66853 | 144.84204 | 389 ft | 16 kts | 171° |
| 2026-04-30 06:24 | -37.66989 | 144.84230 | 385 ft | 24 kts | 171° |
| 2026-04-30 06:24 | -37.67159 | 144.84261 | 382 ft | 24 kts | 170° |
| 2026-04-30 06:24 | -37.67318 | 144.84291 | 378 ft | 23 kts | 171° |
| 2026-04-30 06:25 | -37.67473 | 144.84320 | 375 ft | 22 kts | 172° |
| 2026-04-30 06:25 | -37.67625 | 144.84348 | 371 ft | 22 kts | 172° |
| 2026-04-30 06:25 | -37.67780 | 144.84376 | 366 ft | 24 kts | 172° |
| 2026-04-30 06:25 | -37.67951 | 144.84409 | 360 ft | 26 kts | 171° |
| 2026-04-30 06:26 | -37.68130 | 144.84444 | 357 ft | 25 kts | 173° |
| 2026-04-30 06:26 | -37.68300 | 144.84475 | 353 ft | 24 kts | 175° |
| 2026-04-30 06:26 | -37.68437 | 144.84393 | 351 ft | 22 kts | 210° |
| 2026-04-30 06:26 | -37.68538 | 144.84289 | 336 ft | 13 kts | 239° |
| 2026-04-30 06:27 | -37.68552 | 144.84238 | 338 ft | 0 kts | 261° |
| 2026-04-30 06:28 | -37.68552 | 144.84237 | 338 ft | 1 kts | 261° |
| 2026-04-30 06:28 | -37.68554 | 144.84218 | 338 ft | 3 kts | 262° |
| 2026-04-30 06:28 | -37.68558 | 144.84184 | 338 ft | 8 kts | 262° |
| 2026-04-30 06:29 | -37.68560 | 144.84104 | 354 ft | 9 kts | 299° |
| 2026-04-30 06:29 | -37.68505 | 144.84086 | 346 ft | 10 kts | 353° |
| 2026-04-30 06:29 | -37.68225 | 144.84034 | 354 ft | 84 kts | 352° |
| 2026-04-30 06:29 | -37.67364 | 144.83874 | 375 ft | 162 kts | 352° |
| 2026-04-30 06:30 | -37.66170 | 144.83637 | 1140 ft | 181 kts | 354° |
| 2026-04-30 06:30 | -37.64972 | 144.83437 | 2614 ft | 162 kts | 354° |
| 2026-04-30 06:30 | -37.63824 | 144.83244 | 3540 ft | 177 kts | 351° |
| 2026-04-30 06:30 | -37.62509 | 144.82962 | 3875 ft | 204 kts | 349° |
| 2026-04-30 06:31 | -37.61030 | 144.82622 | 4216 ft | 227 kts | 350° |
| 2026-04-30 06:31 | -37.59424 | 144.82335 | 4683 ft | 245 kts | 355° |
| 2026-04-30 06:31 | -37.57720 | 144.82622 | 4546 ft | 251 kts | 18° |
| 2026-04-30 06:31 | -37.56191 | 144.83587 | 4690 ft | 244 kts | 26° |
| 2026-04-30 06:32 | -37.54681 | 144.84671 | 4869 ft | 256 kts | 27° |
| 2026-04-30 06:32 | -37.53133 | 144.85779 | 5727 ft | 262 kts | 26° |
| 2026-04-30 06:32 | -37.51554 | 144.86890 | 6849 ft | 258 kts | 25° |
| 2026-04-30 06:32 | -37.49945 | 144.87939 | 7681 ft | 266 kts | 23° |
| 2026-04-30 06:33 | -37.48264 | 144.88952 | 8609 ft | 266 kts | 21° |
| 2026-04-30 06:33 | -37.46579 | 144.89924 | 9525 ft | 272 kts | 21° |
| 2026-04-30 06:33 | -37.44836 | 144.90956 | 10247 ft | 282 kts | 22° |
| 2026-04-30 06:33 | -37.43157 | 144.92442 | 10510 ft | 316 kts | 46° |
| 2026-04-30 06:34 | -37.41781 | 144.94748 | 10809 ft | 340 kts | 51° |
| 2026-04-30 06:34 | -37.40406 | 144.97225 | 11435 ft | 349 kts | 52° |
| 2026-04-30 06:34 | -37.39017 | 144.99748 | 12270 ft | 352 kts | 52° |
| 2026-04-30 06:34 | -37.37631 | 145.02256 | 13052 ft | 356 kts | 52° |
| 2026-04-30 06:35 | -37.36181 | 145.04857 | 13816 ft | 362 kts | 52° |
| 2026-04-30 06:35 | -37.34740 | 145.07423 | 14532 ft | 366 kts | 51° |
| 2026-04-30 06:35 | -37.33261 | 145.10045 | 15279 ft | 369 kts | 51° |
| 2026-04-30 06:35 | -37.31769 | 145.12681 | 16020 ft | 372 kts | 51° |
| 2026-04-30 06:36 | -37.30262 | 145.15339 | 16747 ft | 375 kts | 51° |
| 2026-04-30 06:36 | -37.28739 | 145.18020 | 17433 ft | 379 kts | 50° |
| 2026-04-30 06:36 | -37.27197 | 145.20731 | 18121 ft | 384 kts | 50° |
| 2026-04-30 06:36 | -37.25640 | 145.23468 | 18795 ft | 387 kts | 50° |
| 2026-04-30 06:37 | -37.24070 | 145.26227 | 19398 ft | 390 kts | 50° |
| 2026-04-30 06:37 | -37.22487 | 145.29003 | 20033 ft | 391 kts | 50° |
| 2026-04-30 06:37 | -37.20920 | 145.31753 | 20637 ft | 394 kts | 50° |
| 2026-04-30 06:37 | -37.19318 | 145.34564 | 21203 ft | 398 kts | 50° |
| 2026-04-30 06:38 | -37.17696 | 145.37402 | 21774 ft | 402 kts | 50° |
| 2026-04-30 06:38 | -37.16065 | 145.40254 | 22339 ft | 405 kts | 50° |
| 2026-04-30 06:38 | -37.14416 | 145.43131 | 22873 ft | 408 kts | 50° |
| 2026-04-30 06:38 | -37.12753 | 145.46029 | 23393 ft | 411 kts | 50° |
| 2026-04-30 06:39 | -37.11078 | 145.48946 | 23925 ft | 414 kts | 50° |
| 2026-04-30 06:39 | -37.09388 | 145.51888 | 24347 ft | 418 kts | 50° |
| 2026-04-30 06:39 | -37.07683 | 145.54854 | 24752 ft | 421 kts | 50° |
| 2026-04-30 06:39 | -37.05967 | 145.57837 | 25165 ft | 424 kts | 50° |
| 2026-04-30 06:40 | -37.04261 | 145.60803 | 25576 ft | 427 kts | 50° |
| 2026-04-30 06:40 | -37.02520 | 145.63827 | 25995 ft | 429 kts | 50° |
| 2026-04-30 06:40 | -37.00766 | 145.66869 | 26398 ft | 432 kts | 50° |
| 2026-04-30 06:40 | -36.99004 | 145.69923 | 26808 ft | 434 kts | 50° |
| 2026-04-30 06:41 | -36.97229 | 145.72998 | 27189 ft | 437 kts | 50° |
| 2026-04-30 06:41 | -36.95443 | 145.76087 | 27564 ft | 440 kts | 50° |
| 2026-04-30 06:41 | -36.93643 | 145.79196 | 27937 ft | 443 kts | 50° |
| 2026-04-30 06:41 | -36.91835 | 145.82317 | 28374 ft | 443 kts | 50° |
| 2026-04-30 06:42 | -36.90048 | 145.85401 | 28754 ft | 445 kts | 50° |
| 2026-04-30 06:42 | -36.88224 | 145.88546 | 29087 ft | 448 kts | 50° |
| 2026-04-30 06:42 | -36.86389 | 145.91705 | 29454 ft | 451 kts | 50° |
| 2026-04-30 06:42 | -36.84545 | 145.94878 | 29802 ft | 453 kts | 50° |
| 2026-04-30 06:43 | -36.82689 | 145.98068 | 30148 ft | 455 kts | 50° |
| 2026-04-30 06:43 | -36.80824 | 146.01272 | 30458 ft | 457 kts | 50° |
| 2026-04-30 06:43 | -36.78948 | 146.04489 | 30722 ft | 460 kts | 50° |
| 2026-04-30 06:43 | -36.77063 | 146.07721 | 30951 ft | 462 kts | 50° |
| 2026-04-30 06:44 | -36.75166 | 146.10970 | 31241 ft | 464 kts | 50° |
| 2026-04-30 06:44 | -36.73268 | 146.14217 | 31623 ft | 462 kts | 50° |
| 2026-04-30 06:44 | -36.71376 | 146.17452 | 32000 ft | 462 kts | 50° |
| 2026-04-30 06:44 | -36.69506 | 146.20645 | 32312 ft | 462 kts | 50° |
| 2026-04-30 06:45 | -36.67610 | 146.23880 | 32610 ft | 463 kts | 50° |
| 2026-04-30 06:45 | -36.65709 | 146.27118 | 32929 ft | 463 kts | 50° |
| 2026-04-30 06:45 | -36.63809 | 146.30353 | 33265 ft | 463 kts | 50° |
| 2026-04-30 06:45 | -36.61907 | 146.33587 | 33593 ft | 462 kts | 51° |
| 2026-04-30 06:46 | -36.60012 | 146.36808 | 34017 ft | 460 kts | 51° |
| 2026-04-30 06:46 | -36.58128 | 146.40008 | 34386 ft | 459 kts | 51° |
| 2026-04-30 06:46 | -36.56242 | 146.43207 | 34630 ft | 459 kts | 51° |
| 2026-04-30 06:46 | -36.54346 | 146.46418 | 34866 ft | 460 kts | 51° |
| 2026-04-30 06:47 | -36.52476 | 146.49582 | 35138 ft | 460 kts | 51° |
| 2026-04-30 06:47 | -36.50587 | 146.52778 | 35438 ft | 459 kts | 51° |
| 2026-04-30 06:47 | -36.48696 | 146.55972 | 35708 ft | 458 kts | 51° |
| 2026-04-30 06:47 | -36.46811 | 146.59155 | 36004 ft | 457 kts | 51° |
| 2026-04-30 06:48 | -36.44923 | 146.62339 | 36256 ft | 457 kts | 51° |
| 2026-04-30 06:48 | -36.43035 | 146.65520 | 36482 ft | 458 kts | 51° |
| 2026-04-30 06:48 | -36.41147 | 146.68698 | 36723 ft | 458 kts | 50° |
| 2026-04-30 06:48 | -36.39258 | 146.71875 | 36993 ft | 457 kts | 50° |
| 2026-04-30 06:49 | -36.37367 | 146.75051 | 37240 ft | 457 kts | 50° |
| 2026-04-30 06:49 | -36.33565 | 146.81430 | 37331 ft | 462 kts | 50° |
| 2026-04-30 06:50 | -36.29769 | 146.87788 | 37327 ft | 461 kts | 51° |
| 2026-04-30 06:50 | -36.25969 | 146.94144 | 37341 ft | 458 kts | 50° |
| 2026-04-30 06:51 | -36.22181 | 147.00466 | 37333 ft | 456 kts | 50° |
| 2026-04-30 06:51 | -36.18404 | 147.06757 | 37344 ft | 455 kts | 50° |
| 2026-04-30 06:52 | -36.14656 | 147.12987 | 37336 ft | 454 kts | 51° |
| 2026-04-30 06:52 | -36.10878 | 147.19257 | 37355 ft | 456 kts | 51° |
| 2026-04-30 06:53 | -36.07078 | 147.25554 | 37352 ft | 458 kts | 51° |
| 2026-04-30 06:53 | -36.03251 | 147.31885 | 37353 ft | 461 kts | 51° |
| 2026-04-30 06:54 | -35.99407 | 147.38235 | 37361 ft | 463 kts | 51° |
| 2026-04-30 06:54 | -35.95535 | 147.44619 | 37351 ft | 465 kts | 51° |
| 2026-04-30 06:55 | -35.91671 | 147.50978 | 37357 ft | 467 kts | 51° |
| 2026-04-30 06:55 | -35.87770 | 147.57387 | 37360 ft | 467 kts | 51° |
| 2026-04-30 06:56 | -35.83864 | 147.63792 | 37356 ft | 468 kts | 51° |
| 2026-04-30 06:56 | -35.79949 | 147.70193 | 37350 ft | 467 kts | 51° |
| 2026-04-30 06:57 | -35.76040 | 147.76571 | 37361 ft | 466 kts | 51° |
| 2026-04-30 06:57 | -35.72161 | 147.82891 | 37361 ft | 465 kts | 51° |
| 2026-04-30 06:58 | -35.68263 | 147.89233 | 37362 ft | 464 kts | 51° |
| 2026-04-30 06:58 | -35.64371 | 147.95553 | 37364 ft | 463 kts | 51° |
| 2026-04-30 06:59 | -35.60484 | 148.01853 | 37367 ft | 462 kts | 51° |
| 2026-04-30 06:59 | -35.56625 | 148.08097 | 37374 ft | 462 kts | 51° |
| 2026-04-30 07:00 | -35.52741 | 148.14371 | 37371 ft | 461 kts | 51° |
| 2026-04-30 07:00 | -35.48857 | 148.20633 | 37382 ft | 461 kts | 51° |
| 2026-04-30 07:01 | -35.44969 | 148.26894 | 37386 ft | 461 kts | 51° |
| 2026-04-30 07:01 | -35.41074 | 148.33146 | 37389 ft | 462 kts | 51° |
| 2026-04-30 07:02 | -35.37207 | 148.39329 | 37376 ft | 459 kts | 51° |
| 2026-04-30 07:02 | -35.33327 | 148.45527 | 37386 ft | 460 kts | 51° |
| 2026-04-30 07:03 | -35.29395 | 148.51795 | 37401 ft | 467 kts | 51° |
| 2026-04-30 07:04 | -35.21959 | 148.63629 | 37388 ft | 459 kts | 51° |
| 2026-04-30 07:04 | -35.18052 | 148.69827 | 37391 ft | 460 kts | 51° |
| 2026-04-30 07:05 | -35.12193 | 148.79105 | 37386 ft | 463 kts | 51° |
| 2026-04-30 07:05 | -35.08243 | 148.85346 | 37385 ft | 465 kts | 51° |
| 2026-04-30 07:06 | -35.04277 | 148.91602 | 37373 ft | 466 kts | 51° |
| 2026-04-30 07:06 | -35.00301 | 148.97861 | 37374 ft | 467 kts | 51° |
| 2026-04-30 07:07 | -34.98327 | 149.00964 | 37028 ft | 473 kts | 51° |
| 2026-04-30 07:07 | -34.96308 | 149.04136 | 36520 ft | 472 kts | 52° |
| 2026-04-30 07:07 | -34.94300 | 149.07288 | 35893 ft | 470 kts | 52° |
| 2026-04-30 07:07 | -34.92294 | 149.10433 | 35249 ft | 470 kts | 52° |
| 2026-04-30 07:08 | -34.90286 | 149.13578 | 34597 ft | 469 kts | 52° |
| 2026-04-30 07:08 | -34.88308 | 149.16675 | 34207 ft | 459 kts | 53° |
| 2026-04-30 07:08 | -34.86349 | 149.19739 | 33519 ft | 458 kts | 53° |
| 2026-04-30 07:08 | -34.84409 | 149.22772 | 33069 ft | 452 kts | 52° |
| 2026-04-30 07:09 | -34.82487 | 149.25773 | 32580 ft | 448 kts | 52° |
| 2026-04-30 07:09 | -34.80580 | 149.28749 | 32117 ft | 443 kts | 52° |
| 2026-04-30 07:09 | -34.78717 | 149.31655 | 31666 ft | 439 kts | 52° |
| 2026-04-30 07:09 | -34.76849 | 149.34565 | 31220 ft | 435 kts | 52° |
| 2026-04-30 07:10 | -34.74990 | 149.37457 | 30779 ft | 432 kts | 52° |
| 2026-04-30 07:10 | -34.73274 | 149.40426 | 30387 ft | 426 kts | 60° |
| 2026-04-30 07:11 | -34.69106 | 149.50088 | 29157 ft | 409 kts | 63° |
| 2026-04-30 07:11 | -34.67805 | 149.53137 | 28709 ft | 405 kts | 63° |
| 2026-04-30 07:11 | -34.66502 | 149.56160 | 28258 ft | 402 kts | 62° |
| 2026-04-30 07:11 | -34.65205 | 149.59147 | 27814 ft | 399 kts | 62° |
| 2026-04-30 07:12 | -34.63911 | 149.62112 | 27374 ft | 396 kts | 62° |
| 2026-04-30 07:12 | -34.62625 | 149.65052 | 26941 ft | 393 kts | 62° |
| 2026-04-30 07:12 | -34.61342 | 149.67978 | 26505 ft | 391 kts | 62° |
| 2026-04-30 07:12 | -34.60067 | 149.70882 | 26072 ft | 388 kts | 62° |
| 2026-04-30 07:13 | -34.58800 | 149.73767 | 25651 ft | 386 kts | 62° |
| 2026-04-30 07:13 | -34.57557 | 149.76597 | 25230 ft | 384 kts | 62° |
| 2026-04-30 07:13 | -34.56301 | 149.79454 | 24806 ft | 383 kts | 62° |
| 2026-04-30 07:13 | -34.55051 | 149.82293 | 24361 ft | 382 kts | 62° |
| 2026-04-30 07:14 | -34.53802 | 149.85130 | 23939 ft | 380 kts | 62° |
| 2026-04-30 07:14 | -34.52559 | 149.87951 | 23431 ft | 379 kts | 62° |
| 2026-04-30 07:14 | -34.51322 | 149.90755 | 22979 ft | 376 kts | 62° |
| 2026-04-30 07:14 | -34.50092 | 149.93541 | 22544 ft | 373 kts | 62° |
| 2026-04-30 07:15 | -34.48876 | 149.96292 | 22190 ft | 368 kts | 62° |
| 2026-04-30 07:15 | -34.47670 | 149.99016 | 21766 ft | 366 kts | 62° |
| 2026-04-30 07:15 | -34.46471 | 150.01725 | 21364 ft | 363 kts | 62° |
| 2026-04-30 07:15 | -34.45281 | 150.04411 | 20942 ft | 361 kts | 62° |
| 2026-04-30 07:16 | -34.44097 | 150.07083 | 20533 ft | 359 kts | 62° |
| 2026-04-30 07:16 | -34.42919 | 150.09740 | 20128 ft | 357 kts | 62° |
| 2026-04-30 07:16 | -34.41765 | 150.12341 | 19733 ft | 355 kts | 62° |
| 2026-04-30 07:16 | -34.40598 | 150.14969 | 19328 ft | 353 kts | 62° |
| 2026-04-30 07:17 | -34.39437 | 150.17583 | 18927 ft | 352 kts | 62° |
| 2026-04-30 07:17 | -34.38276 | 150.20193 | 18477 ft | 351 kts | 62° |
| 2026-04-30 07:17 | -34.35971 | 150.25371 | 17614 ft | 347 kts | 62° |
| 2026-04-30 07:18 | -34.34830 | 150.27932 | 17202 ft | 344 kts | 61° |
| 2026-04-30 07:18 | -34.33717 | 150.30428 | 16810 ft | 342 kts | 61° |
| 2026-04-30 07:18 | -34.32605 | 150.32919 | 16429 ft | 339 kts | 61° |
| 2026-04-30 07:18 | -34.31489 | 150.35420 | 16037 ft | 337 kts | 61° |
| 2026-04-30 07:19 | -34.30377 | 150.37910 | 15651 ft | 335 kts | 60° |
| 2026-04-30 07:19 | -34.29272 | 150.40381 | 15261 ft | 333 kts | 60° |
| 2026-04-30 07:19 | -34.28170 | 150.42840 | 14872 ft | 331 kts | 60° |
| 2026-04-30 07:19 | -34.27076 | 150.45284 | 14495 ft | 330 kts | 60° |
| 2026-04-30 07:20 | -34.25987 | 150.47713 | 14097 ft | 328 kts | 60° |
| 2026-04-30 07:20 | -34.24907 | 150.50129 | 13685 ft | 326 kts | 60° |
| 2026-04-30 07:20 | -34.23843 | 150.52504 | 13280 ft | 324 kts | 61° |
| 2026-04-30 07:20 | -34.22775 | 150.54886 | 12891 ft | 322 kts | 60° |
| 2026-04-30 07:21 | -34.21715 | 150.57251 | 12504 ft | 319 kts | 61° |
| 2026-04-30 07:21 | -34.20663 | 150.59597 | 12128 ft | 317 kts | 61° |
| 2026-04-30 07:21 | -34.19615 | 150.61930 | 11756 ft | 315 kts | 61° |
| 2026-04-30 07:21 | -34.18574 | 150.64246 | 11386 ft | 312 kts | 61° |
| 2026-04-30 07:22 | -34.16512 | 150.68827 | 10595 ft | 310 kts | 62° |
| 2026-04-30 07:22 | -34.15491 | 150.71097 | 10348 ft | 304 kts | 62° |
| 2026-04-30 07:22 | -34.14495 | 150.73308 | 10176 ft | 296 kts | 62° |
| 2026-04-30 07:23 | -34.13528 | 150.75455 | 10024 ft | 286 kts | 62° |
| 2026-04-30 07:23 | -34.12610 | 150.77494 | 9949 ft | 275 kts | 62° |
| 2026-04-30 07:23 | -34.11689 | 150.79537 | 9518 ft | 277 kts | 62° |
| 2026-04-30 07:23 | -34.10768 | 150.81576 | 9183 ft | 276 kts | 62° |
| 2026-04-30 07:24 | -34.09854 | 150.83602 | 8911 ft | 273 kts | 62° |
| 2026-04-30 07:24 | -34.08954 | 150.85600 | 8681 ft | 269 kts | 62° |
| 2026-04-30 07:24 | -34.08067 | 150.87572 | 8465 ft | 265 kts | 62° |
| 2026-04-30 07:24 | -34.07194 | 150.89511 | 8255 ft | 261 kts | 62° |
| 2026-04-30 07:25 | -34.06329 | 150.91435 | 8043 ft | 261 kts | 62° |
| 2026-04-30 07:25 | -34.05462 | 150.93358 | 7846 ft | 261 kts | 62° |
| 2026-04-30 07:25 | -34.04595 | 150.95280 | 7631 ft | 261 kts | 62° |
| 2026-04-30 07:25 | -34.03726 | 150.97204 | 7427 ft | 261 kts | 62° |
| 2026-04-30 07:26 | -34.03131 | 150.99227 | 7193 ft | 262 kts | 85° |
| 2026-04-30 07:26 | -34.03402 | 151.01382 | 7006 ft | 262 kts | 111° |
| 2026-04-30 07:26 | -34.04372 | 151.03239 | 6804 ft | 264 kts | 129° |
| 2026-04-30 07:26 | -34.05622 | 151.04854 | 6585 ft | 264 kts | 133° |
| 2026-04-30 07:27 | -34.06906 | 151.06435 | 6349 ft | 264 kts | 133° |
| 2026-04-30 07:27 | -34.08362 | 151.07763 | 6111 ft | 267 kts | 156° |
| 2026-04-30 07:27 | -34.10152 | 151.08341 | 5921 ft | 266 kts | 166° |
| 2026-04-30 07:27 | -34.11970 | 151.08786 | 5707 ft | 266 kts | 166° |
| 2026-04-30 07:28 | -34.13783 | 151.09240 | 5502 ft | 266 kts | 166° |
| 2026-04-30 07:28 | -34.15589 | 151.09700 | 5284 ft | 266 kts | 166° |
| 2026-04-30 07:28 | -34.17400 | 151.10166 | 5068 ft | 266 kts | 166° |
| 2026-04-30 07:28 | -34.19201 | 151.10632 | 4842 ft | 263 kts | 166° |
| 2026-04-30 07:29 | -34.20860 | 151.11360 | 4604 ft | 254 kts | 141° |
| 2026-04-30 07:29 | -34.21941 | 151.12947 | 4466 ft | 236 kts | 111° |
| 2026-04-30 07:29 | -34.22245 | 151.14798 | 4253 ft | 225 kts | 83° |
| 2026-04-30 07:29 | -34.21940 | 151.16632 | 4099 ft | 223 kts | 74° |
| 2026-04-30 07:30 | -34.20992 | 151.20209 | 3737 ft | 224 kts | 62° |
| 2026-04-30 07:30 | -34.20237 | 151.21847 | 3565 ft | 223 kts | 61° |
| 2026-04-30 07:30 | -34.19284 | 151.23256 | 3410 ft | 213 kts | 30° |
| 2026-04-30 07:31 | -34.17891 | 151.23544 | 3308 ft | 206 kts | 352° |
| 2026-04-30 07:31 | -34.16492 | 151.23196 | 3172 ft | 205 kts | 353° |
| 2026-04-30 07:31 | -34.15099 | 151.22883 | 3054 ft | 203 kts | 352° |
| 2026-04-30 07:31 | -34.13707 | 151.22550 | 3011 ft | 204 kts | 351° |
| 2026-04-30 07:32 | -34.12347 | 151.22209 | 3001 ft | 201 kts | 351° |
| 2026-04-30 07:32 | -34.10993 | 151.21860 | 2869 ft | 196 kts | 351° |
| 2026-04-30 07:32 | -34.09679 | 151.21518 | 2625 ft | 191 kts | 351° |
| 2026-04-30 07:32 | -34.08414 | 151.21187 | 2391 ft | 180 kts | 352° |
| 2026-04-30 07:33 | -34.07197 | 151.20871 | 2155 ft | 178 kts | 351° |
| 2026-04-30 07:33 | -34.05976 | 151.20553 | 1918 ft | 177 kts | 351° |
| 2026-04-30 07:33 | -34.04835 | 151.20254 | 1688 ft | 161 kts | 352° |
| 2026-04-30 07:33 | -34.03787 | 151.19981 | 1464 ft | 149 kts | 352° |
| 2026-04-30 07:34 | -34.02780 | 151.19720 | 1279 ft | 149 kts | 352° |
| 2026-04-30 07:34 | -34.01776 | 151.19459 | 1085 ft | 146 kts | 352° |
| 2026-04-30 07:34 | -34.00805 | 151.19190 | 923 ft | 146 kts | 351° |
| 2026-04-30 07:34 | -33.99816 | 151.18917 | 735 ft | 147 kts | 352° |
| 2026-04-30 07:35 | -33.98827 | 151.18681 | 533 ft | 143 kts | 353° |
| 2026-04-30 07:35 | -33.97875 | 151.18425 | 334 ft | 137 kts | 354° |
| 2026-04-30 07:35 | -33.96954 | 151.18202 | 168 ft | 133 kts | 352° |
| 2026-04-30 07:35 | -33.96055 | 151.17967 | 30 ft | 127 kts | 353° |
| 2026-04-30 07:36 | -33.95282 | 151.17772 | 22 ft | 96 kts | 347° |
| 2026-04-30 07:36 | -33.94747 | 151.17630 | 23 ft | 63 kts | 348° |
| 2026-04-30 07:36 | -33.94442 | 151.17551 | 24 ft | 28 kts | 348° |
| 2026-04-30 07:36 | -33.94376 | 151.17596 | 23 ft | 11 kts | 74° |
| 2026-04-30 07:37 | -33.94358 | 151.17682 | 22 ft | 11 kts | 75° |
| 2026-04-30 07:37 | -33.94314 | 151.17730 | 21 ft | 9 kts | 347° |
| 2026-04-30 07:37 | -33.94253 | 151.17712 | 20 ft | 9 kts | 346° |
| 2026-04-30 07:37 | -33.94195 | 151.17695 | 20 ft | 8 kts | 346° |
| 2026-04-30 07:38 | -33.94138 | 151.17677 | 21 ft | 8 kts | 346° |
| 2026-04-30 07:38 | -33.94083 | 151.17660 | 21 ft | 8 kts | 346° |
| 2026-04-30 07:38 | -33.94022 | 151.17643 | 20 ft | 10 kts | 347° |
| 2026-04-30 07:38 | -33.93947 | 151.17623 | 18 ft | 12 kts | 348° |
| 2026-04-30 07:39 | -33.93867 | 151.17603 | 18 ft | 12 kts | 349° |
| 2026-04-30 07:39 | -33.93790 | 151.17585 | 17 ft | 11 kts | 346° |
| 2026-04-30 07:39 | -33.93710 | 151.17561 | 16 ft | 13 kts | 347° |
| 2026-04-30 07:39 | -33.93607 | 151.17534 | 16 ft | 17 kts | 347° |
| 2026-04-30 07:40 | -33.93486 | 151.17503 | 18 ft | 18 kts | 350° |
| 2026-04-30 07:40 | -33.93363 | 151.17500 | 20 ft | 17 kts | 349° |
| 2026-04-30 07:40 | -33.93241 | 151.17469 | 20 ft | 18 kts | 347° |
| 2026-04-30 07:40 | -33.93120 | 151.17437 | 21 ft | 15 kts | 349° |
| 2026-04-30 07:41 | -33.93059 | 151.17524 | 29 ft | 15 kts | 56° |
| 2026-04-30 07:41 | -33.93003 | 151.17597 | 29 ft | 12 kts | 82° |
| 2026-04-30 07:41 | -33.93020 | 151.17676 | 29 ft | 10 kts | 111° |
| 2026-04-30 07:41 | -33.93046 | 151.17725 | 29 ft | 6 kts | 147° |
| 2026-04-30 07:42 | -33.93089 | 151.17720 | 29 ft | 6 kts | 191° |
| 2026-04-30 07:42 | -33.93120 | 151.17713 | 29 ft | 2 kts | 189° |
| 2026-04-30 07:42 | -33.93126 | 151.17712 | 29 ft | 0 kts | 189° |